Time;durP1;ratioP1;P1;durP2;ratioP2;P2;SDS_P1;SDS_P2;PMS_P1;PMS_P2;Temp;Humidity;BMP_temperature;BMP_pressure;BME280_temperature;BME280_humidity;BME280_pressure;Samples;Min_cycle;Max_cycle;Signal;HPM_P1;HPM_P2
2022/07/29 00:02:27;;;;;;;1.47;1.30;;;;;;;;;;4945452;28;20211;-74
2022/07/29 00:04:57;;;;;;;4.03;1.50;;;;;;;;;;4953824;29;20233;-74
2022/07/29 00:07:25;;;;;;;2.60;1.33;;;;;;;;;;4958155;28;20571;-74
2022/07/29 00:09:54;;;;;;;5.30;1.50;;;;;;;;;;4956099;28;20209;-72
2022/07/29 00:12:24;;;;;;;4.17;1.60;;;;;;;;;;4942865;28;20277;-72
2022/07/29 00:14:54;;;;;;;2.50;1.27;;;;;;;;;;4948522;29;20290;-72
2022/07/29 00:17:23;;;;;;;2.27;1.33;;;;;;;;;;4957609;29;20230;-72
2022/07/29 00:19:51;;;;;;;4.67;1.30;;;;;;;;;;4948105;28;20212;-72
2022/07/29 00:22:21;;;;;;;4.47;1.50;;;;;;;;;;4948427;29;20210;-72
2022/07/29 00:24:50;;;;;;;1.97;1.37;;;;;;;;;;4949728;28;20223;-72
2022/07/29 00:27:18;;;;;;;2.30;1.33;;;;;;;;;;4951314;29;20242;-72
2022/07/29 00:29:47;;;;;;;4.17;1.70;;;;;;;;;;4950750;28;20226;-72
2022/07/29 00:32:15;;;;;;;3.40;1.30;;;;;;;;;;4947974;29;20302;-72
2022/07/29 00:37:32;;;;;;;4.00;1.63;;;;;;;;;;4949462;29;20222;-72
2022/07/29 00:40:00;;;;;;;3.60;1.50;;;;;;;;;;4957179;28;20595;-72
2022/07/29 00:42:29;;;;;;;4.47;1.50;;;;;;;;;;4955823;29;20207;-72
2022/07/29 00:44:57;;;;;;;2.93;1.60;;;;;;;;;;4952829;28;20229;-72
2022/07/29 00:47:26;;;;;;;4.20;1.40;;;;;;;;;;4956967;28;20711;-72
2022/07/29 00:49:54;;;;;;;3.53;1.60;;;;;;;;;;4946761;28;20207;-72
2022/07/29 00:52:23;;;;;;;3.97;1.47;;;;;;;;;;4948265;29;20207;-74
2022/07/29 00:54:52;;;;;;;2.63;1.33;;;;;;;;;;4953473;29;20206;-72
2022/07/29 00:57:21;;;;;;;4.17;1.50;;;;;;;;;;4938897;29;20783;-72
2022/07/29 00:59:50;;;;;;;3.07;1.33;;;;;;;;;;4954739;29;20727;-73
2022/07/29 01:02:18;;;;;;;5.23;1.63;;;;;;;;;;4948082;29;20207;-72
2022/07/29 01:04:47;;;;;;;3.13;1.40;;;;;;;;;;4956424;28;20705;-72
2022/07/29 01:07:16;;;;;;;2.80;1.60;;;;;;;;;;4948711;29;20223;-74
2022/07/29 01:09:45;;;;;;;2.70;1.20;;;;;;;;;;4951007;28;20651;-74
2022/07/29 01:12:18;;;;;;;3.13;1.50;;;;;;;;;;4951648;29;20214;-72
2022/07/29 01:14:47;;;;;;;4.40;1.37;;;;;;;;;;4956120;28;20628;-72
2022/07/29 01:17:18;;;;;;;3.27;1.30;;;;;;;;;;4952759;29;20231;-72
2022/07/29 01:19:50;;;;;;;2.23;1.37;;;;;;;;;;4953692;29;20535;-72
2022/07/29 01:22:27;;;;;;;2.47;1.50;;;;;;;;;;4942146;29;20211;-72
2022/07/29 01:25:14;;;;;;;4.47;1.77;;;;;;;;;;4951061;29;20226;-72
2022/07/29 01:27:53;;;;;;;3.73;1.40;;;;;;;;;;4954999;29;20226;-72
2022/07/29 01:30:24;;;;;;;2.60;1.60;;;;;;;;;;4944711;29;20663;-72
2022/07/29 01:32:56;;;;;;;4.70;1.80;;;;;;;;;;4950526;28;20202;-72
2022/07/29 01:35:26;;;;;;;3.33;1.43;;;;;;;;;;4956188;28;20705;-72
2022/07/29 01:37:59;;;;;;;2.40;1.50;;;;;;;;;;4946638;29;20231;-72
2022/07/29 01:40:30;;;;;;;2.40;1.50;;;;;;;;;;4954938;29;20211;-72
2022/07/29 01:43:01;;;;;;;5.57;1.60;;;;;;;;;;4954738;28;20659;-72
2022/07/29 01:45:34;;;;;;;3.27;1.47;;;;;;;;;;4955393;29;20642;-72
2022/07/29 01:48:04;;;;;;;3.40;1.60;;;;;;;;;;4952716;29;20227;-72
2022/07/29 01:50:35;;;;;;;2.67;1.60;;;;;;;;;;4955305;28;20214;-72
2022/07/29 01:53:05;;;;;;;4.63;1.70;;;;;;;;;;4949559;28;20210;-72
2022/07/29 01:55:36;;;;;;;3.57;1.70;;;;;;;;;;4954092;28;20234;-72
2022/07/29 01:58:05;;;;;;;4.53;1.60;;;;;;;;;;4955013;28;20257;-71
2022/07/29 02:00:35;;;;;;;2.60;1.47;;;;;;;;;;4950273;28;20636;-71
2022/07/29 02:03:07;;;;;;;2.30;1.50;;;;;;;;;;4939179;29;20211;-72
2022/07/29 02:05:36;;;;;;;4.50;1.53;;;;;;;;;;4950122;28;20227;-72
2022/07/29 02:08:05;;;;;;;3.37;1.70;;;;;;;;;;4939890;29;20246;-72
2022/07/29 02:10:34;;;;;;;3.23;1.40;;;;;;;;;;4955347;29;20214;-72
2022/07/29 02:13:04;;;;;;;3.00;1.67;;;;;;;;;;4954791;28;20213;-72
2022/07/29 02:15:33;;;;;;;4.67;1.50;;;;;;;;;;4950674;28;20195;-72
2022/07/29 02:18:07;;;;;;;3.23;1.20;;;;;;;;;;4938617;29;20230;-72
2022/07/29 02:20:35;;;;;;;3.37;1.43;;;;;;;;;;4950060;29;20212;-72
2022/07/29 02:23:04;;;;;;;4.03;1.70;;;;;;;;;;4938282;29;20230;-72
2022/07/29 02:25:33;;;;;;;3.00;1.47;;;;;;;;;;4954415;28;20227;-72
2022/07/29 02:28:06;;;;;;;3.50;1.43;;;;;;;;;;4954551;29;20230;-72
2022/07/29 02:30:35;;;;;;;2.90;1.40;;;;;;;;;;4950951;29;20232;-72
2022/07/29 02:33:05;;;;;;;2.40;1.67;;;;;;;;;;4954907;28;20214;-72
2022/07/29 02:35:34;;;;;;;3.97;1.50;;;;;;;;;;4953704;28;20198;-72
2022/07/29 02:40:50;;;;;;;2.30;1.33;;;;;;;;;;4951405;29;20219;-72
2022/07/29 02:43:19;;;;;;;4.00;1.50;;;;;;;;;;4955100;28;20206;-72
2022/07/29 02:45:49;;;;;;;2.40;1.50;;;;;;;;;;4952379;28;20637;-72
2022/07/29 02:48:23;;;;;;;2.37;1.60;;;;;;;;;;4953885;28;20630;-72
2022/07/29 02:50:57;;;;;;;2.70;1.70;;;;;;;;;;4948524;28;20568;-72
2022/07/29 02:53:26;;;;;;;3.80;1.50;;;;;;;;;;4941214;29;20207;-72
2022/07/29 02:55:57;;;;;;;6.33;1.77;;;;;;;;;;4953221;28;20207;-72
2022/07/29 02:58:28;;;;;;;2.87;1.60;;;;;;;;;;4954704;28;20230;-72
2022/07/29 03:00:58;;;;;;;4.47;1.60;;;;;;;;;;4948532;28;20206;-72
2022/07/29 03:03:31;;;;;;;2.83;1.60;;;;;;;;;;4941551;29;20207;-72
2022/07/29 03:06:00;;;;;;;4.23;1.60;;;;;;;;;;4952745;29;20253;-72
2022/07/29 03:08:29;;;;;;;3.33;1.63;;;;;;;;;;4954387;28;20230;-72
2022/07/29 03:10:57;;;;;;;4.07;1.50;;;;;;;;;;4948326;28;20211;-72
2022/07/29 03:13:26;;;;;;;3.20;1.50;;;;;;;;;;4940993;29;20217;-72
2022/07/29 03:15:55;;;;;;;2.83;1.50;;;;;;;;;;4948673;28;20229;-72
2022/07/29 03:18:24;;;;;;;3.00;1.30;;;;;;;;;;4940615;29;20677;-72
2022/07/29 03:20:53;;;;;;;3.23;1.60;;;;;;;;;;4950492;28;20573;-72
2022/07/29 03:23:23;;;;;;;5.87;1.70;;;;;;;;;;4940594;29;20206;-72
2022/07/29 03:25:52;;;;;;;3.73;1.60;;;;;;;;;;4948894;28;20337;-72
2022/07/29 03:28:21;;;;;;;2.27;1.40;;;;;;;;;;4939134;29;20706;-72
2022/07/29 03:30:54;;;;;;;2.33;1.50;;;;;;;;;;4949390;28;20208;-72
2022/07/29 03:33:23;;;;;;;3.37;1.40;;;;;;;;;;4940757;29;20551;-72
2022/07/29 03:35:51;;;;;;;3.40;1.50;;;;;;;;;;4952625;29;20211;-72
2022/07/29 03:38:22;;;;;;;2.60;1.57;;;;;;;;;;4943043;29;20229;-72
2022/07/29 03:40:54;;;;;;;3.60;1.47;;;;;;;;;;4951853;29;20227;-72
2022/07/29 03:43:25;;;;;;;2.63;1.60;;;;;;;;;;4951796;29;20211;-72
2022/07/29 03:45:55;;;;;;;2.40;1.40;;;;;;;;;;4956980;28;20210;-72
2022/07/29 03:48:25;;;;;;;5.67;2.00;;;;;;;;;;4958140;28;20285;-72
2022/07/29 03:50:53;;;;;;;2.43;1.40;;;;;;;;;;4953230;29;20261;-72
2022/07/29 03:53:23;;;;;;;6.27;1.90;;;;;;;;;;4956971;28;20202;-72
2022/07/29 03:55:55;;;;;;;4.03;1.60;;;;;;;;;;4955742;28;20210;-72
2022/07/29 03:58:24;;;;;;;3.60;1.57;;;;;;;;;;4952141;28;20636;-72
2022/07/29 04:00:53;;;;;;;3.43;1.60;;;;;;;;;;4948472;28;20207;-72
2022/07/29 04:03:22;;;;;;;2.80;1.60;;;;;;;;;;4956504;28;20701;-71
2022/07/29 04:05:59;;;;;;;3.47;1.77;;;;;;;;;;4943645;29;20210;-72
2022/07/29 04:08:29;;;;;;;3.10;1.57;;;;;;;;;;4943366;29;20226;-72
2022/07/29 04:10:57;;;;;;;2.83;1.80;;;;;;;;;;4954192;28;20217;-72
2022/07/29 04:13:26;;;;;;;2.87;1.40;;;;;;;;;;4957758;28;20683;-72
2022/07/29 04:15:54;;;;;;;2.50;1.57;;;;;;;;;;4946185;28;20211;-72
2022/07/29 04:18:23;;;;;;;2.47;1.40;;;;;;;;;;4943177;29;20232;-72
2022/07/29 04:20:51;;;;;;;2.73;1.50;;;;;;;;;;4948091;29;20218;-72
2022/07/29 04:23:20;;;;;;;6.83;1.90;;;;;;;;;;4955998;28;20218;-71
2022/07/29 04:25:49;;;;;;;3.37;1.60;;;;;;;;;;4952871;28;20211;-72
2022/07/29 04:28:18;;;;;;;4.47;1.70;;;;;;;;;;4942302;29;20241;-72
2022/07/29 04:30:46;;;;;;;5.13;1.40;;;;;;;;;;4955611;29;20218;-72
2022/07/29 04:33:15;;;;;;;4.37;1.67;;;;;;;;;;4956965;28;20258;-72
2022/07/29 04:35:43;;;;;;;2.77;1.50;;;;;;;;;;4955728;28;20210;-72
2022/07/29 04:38:17;;;;;;;3.13;1.60;;;;;;;;;;4954912;29;20232;-71
2022/07/29 04:40:46;;;;;;;2.47;1.37;;;;;;;;;;4948810;29;20234;-71
2022/07/29 04:43:18;;;;;;;3.30;1.50;;;;;;;;;;4956760;28;20628;-71
2022/07/29 04:45:50;;;;;;;2.47;1.47;;;;;;;;;;4955525;28;20210;-71
2022/07/29 04:48:19;;;;;;;3.37;1.57;;;;;;;;;;4955636;28;20238;-71
2022/07/29 04:50:55;;;;;;;3.27;1.80;;;;;;;;;;4949535;28;20210;-71
2022/07/29 04:53:23;;;;;;;3.20;1.60;;;;;;;;;;4953169;28;20202;-71
2022/07/29 04:55:52;;;;;;;5.83;1.60;;;;;;;;;;4949226;28;20214;-72
2022/07/29 04:58:23;;;;;;;2.73;1.33;;;;;;;;;;4951308;28;20229;-72
2022/07/29 05:00:51;;;;;;;7.77;2.37;;;;;;;;;;4956596;28;20202;-72
2022/07/29 05:03:20;;;;;;;4.07;1.70;;;;;;;;;;4945702;29;20210;-72
2022/07/29 05:05:48;;;;;;;3.60;1.60;;;;;;;;;;4956827;28;20564;-72
2022/07/29 05:08:17;;;;;;;3.33;1.50;;;;;;;;;;4949128;28;20223;-72
2022/07/29 05:10:47;;;;;;;4.13;1.70;;;;;;;;;;4949946;28;20573;-72
2022/07/29 05:13:16;;;;;;;2.77;1.60;;;;;;;;;;4941300;29;20213;-72
2022/07/29 05:15:46;;;;;;;4.33;1.63;;;;;;;;;;4953495;29;20217;-72
2022/07/29 05:18:15;;;;;;;4.60;1.53;;;;;;;;;;4952384;28;20223;-72
2022/07/29 05:20:43;;;;;;;2.33;1.40;;;;;;;;;;4939923;29;20591;-72
2022/07/29 05:23:14;;;;;;;6.17;1.50;;;;;;;;;;4940911;29;20203;-72
2022/07/29 05:25:42;;;;;;;2.13;1.50;;;;;;;;;;4952348;29;20214;-72
2022/07/29 05:28:12;;;;;;;4.03;1.60;;;;;;;;;;4956486;29;20683;-72
2022/07/29 05:30:40;;;;;;;6.23;1.70;;;;;;;;;;4955238;28;20207;-72
2022/07/29 05:33:10;;;;;;;4.07;2.07;;;;;;;;;;4955704;28;20656;-72
2022/07/29 05:35:59;;;;;;;3.70;1.63;;;;;;;;;;4945247;29;20215;-71
2022/07/29 05:38:28;;;;;;;5.87;1.80;;;;;;;;;;4947826;29;20224;-71
2022/07/29 05:40:58;;;;;;;3.87;1.63;;;;;;;;;;4956213;28;20297;-71
2022/07/29 05:43:27;;;;;;;3.87;1.73;;;;;;;;;;4955937;28;20567;-71
2022/07/29 05:45:55;;;;;;;3.53;1.70;;;;;;;;;;4955186;28;20220;-71
2022/07/29 05:48:26;;;;;;;2.50;1.60;;;;;;;;;;4955657;29;20350;-72
2022/07/29 05:50:54;;;;;;;3.23;2.07;;;;;;;;;;4954466;29;20213;-72
2022/07/29 05:53:23;;;;;;;3.43;1.67;;;;;;;;;;4955345;28;20246;-72
2022/07/29 05:55:52;;;;;;;3.70;1.70;;;;;;;;;;4954891;28;20206;-72
2022/07/29 05:58:21;;;;;;;4.17;1.60;;;;;;;;;;4955330;28;20683;-72
2022/07/29 06:00:49;;;;;;;4.97;1.67;;;;;;;;;;4956012;28;20218;-72
2022/07/29 06:03:18;;;;;;;2.67;1.73;;;;;;;;;;4955367;28;20727;-72
2022/07/29 06:05:47;;;;;;;2.00;1.73;;;;;;;;;;4954603;28;20207;-72
2022/07/29 06:08:16;;;;;;;3.67;1.50;;;;;;;;;;4954201;28;20234;-72
2022/07/29 06:10:46;;;;;;;3.40;1.80;;;;;;;;;;4949824;29;20229;-71
2022/07/29 06:13:15;;;;;;;5.00;1.60;;;;;;;;;;4955477;28;20206;-71
2022/07/29 06:15:44;;;;;;;4.13;1.50;;;;;;;;;;4951512;29;20214;-72
2022/07/29 06:18:13;;;;;;;2.73;1.73;;;;;;;;;;4954545;29;21195;-72
2022/07/29 06:20:42;;;;;;;4.07;1.67;;;;;;;;;;4955077;29;20578;-72
2022/07/29 06:23:12;;;;;;;4.07;1.63;;;;;;;;;;4955560;28;20206;-72
2022/07/29 06:25:41;;;;;;;3.33;1.60;;;;;;;;;;4955442;28;20550;-71
2022/07/29 06:28:10;;;;;;;4.93;1.80;;;;;;;;;;4955460;28;20237;-71
2022/07/29 06:30:38;;;;;;;6.93;2.00;;;;;;;;;;4955371;28;20218;-71
2022/07/29 06:33:07;;;;;;;4.97;1.80;;;;;;;;;;4954221;29;20289;-72
2022/07/29 06:35:36;;;;;;;5.60;2.00;;;;;;;;;;4953811;28;20631;-72
2022/07/29 06:38:11;;;;;;;4.30;1.63;;;;;;;;;;4954436;28;20225;-72
2022/07/29 06:41:00;;;;;;;3.73;1.83;;;;;;;;;;4953036;29;20207;-72
2022/07/29 06:43:31;;;;;;;5.27;1.73;;;;;;;;;;4954119;28;20254;-72
2022/07/29 06:46:01;;;;;;;4.50;2.07;;;;;;;;;;4954548;28;20627;-72
2022/07/29 06:48:29;;;;;;;4.27;1.70;;;;;;;;;;4949519;28;20240;-71
2022/07/29 06:50:58;;;;;;;4.07;1.80;;;;;;;;;;4954473;28;20671;-71
2022/07/29 06:53:27;;;;;;;2.97;1.60;;;;;;;;;;4953952;28;20261;-71
2022/07/29 06:55:55;;;;;;;5.03;1.80;;;;;;;;;;4954601;28;20221;-72
2022/07/29 06:58:25;;;;;;;4.70;2.03;;;;;;;;;;4954268;28;20222;-72
2022/07/29 07:00:54;;;;;;;4.67;2.00;;;;;;;;;;4954470;28;20588;-72
2022/07/29 07:03:23;;;;;;;2.47;1.63;;;;;;;;;;4951763;28;20211;-72
2022/07/29 07:05:51;;;;;;;5.90;1.87;;;;;;;;;;4953883;28;20664;-72
2022/07/29 07:08:20;;;;;;;3.97;1.90;;;;;;;;;;4954033;28;20226;-72
2022/07/29 07:10:48;;;;;;;3.25;1.77;;;;;;;;;;4952038;28;20664;-72
2022/07/29 07:13:17;;;;;;;3.63;1.97;;;;;;;;;;4942147;29;20202;-72
2022/07/29 07:15:48;;;;;;;4.33;1.90;;;;;;;;;;4956654;29;20293;-72
2022/07/29 07:18:17;;;;;;;5.20;2.08;;;;;;;;;;4954657;28;20229;-72
2022/07/29 07:20:46;;;;;;;6.70;2.40;;;;;;;;;;4956903;29;20210;-72
2022/07/29 07:23:14;;;;;;;3.78;1.83;;;;;;;;;;4956346;28;20211;-71
2022/07/29 07:25:43;;;;;;;3.70;2.00;;;;;;;;;;4953329;29;20230;-72
2022/07/29 07:28:11;;;;;;;5.40;1.83;;;;;;;;;;4955765;28;20230;-72
2022/07/29 07:30:40;;;;;;;4.22;1.90;;;;;;;;;;4948551;28;20206;-72
2022/07/29 07:33:10;;;;;;;5.32;2.25;;;;;;;;;;4904469;28;1119242;-72
2022/07/29 07:35:39;;;;;;;5.55;2.10;;;;;;;;;;4949746;28;20202;-72
2022/07/29 07:38:07;;;;;;;4.20;2.00;;;;;;;;;;4953933;28;20233;-72
2022/07/29 07:40:35;;;;;;;6.55;2.40;;;;;;;;;;4952480;29;20214;-72
2022/07/29 07:43:04;;;;;;;4.80;1.88;;;;;;;;;;4953068;29;20221;-72
2022/07/29 07:45:33;;;;;;;3.85;2.10;;;;;;;;;;4955582;28;20213;-71
2022/07/29 07:48:02;;;;;;;4.60;2.40;;;;;;;;;;4953033;28;20226;-72
2022/07/29 07:50:32;;;;;;;3.45;2.13;;;;;;;;;;4956980;29;20215;-72
2022/07/29 07:53:01;;;;;;;4.32;2.00;;;;;;;;;;4958866;29;20222;-72
2022/07/29 07:55:30;;;;;;;5.03;1.85;;;;;;;;;;4956750;29;20552;-71
2022/07/29 07:58:19;;;;;;;3.72;1.83;;;;;;;;;;4953611;28;20218;-71
2022/07/29 08:00:47;;;;;;;4.05;2.10;;;;;;;;;;4950036;28;20222;-72
2022/07/29 08:03:18;;;;;;;3.65;1.90;;;;;;;;;;4943876;28;20289;-71
2022/07/29 08:05:50;;;;;;;5.10;1.90;;;;;;;;;;4954789;28;20211;-71
2022/07/29 08:08:19;;;;;;;3.85;1.95;;;;;;;;;;4949554;28;20237;-72
2022/07/29 08:10:55;;;;;;;4.95;2.20;;;;;;;;;;4946133;29;20214;-74
2022/07/29 08:13:25;;;;;;;7.55;1.95;;;;;;;;;;4952366;29;20279;-73
2022/07/29 08:15:58;;;;;;;6.35;2.40;;;;;;;;;;4955344;29;20561;-73
2022/07/29 08:18:27;;;;;;;5.15;2.00;;;;;;;;;;4955709;28;20237;-73
2022/07/29 08:20:58;;;;;;;5.45;2.15;;;;;;;;;;4957873;28;20214;-73
2022/07/29 08:23:34;;;;;;;5.13;2.00;;;;;;;;;;4950899;29;20289;-72
2022/07/29 08:26:17;;;;;;;5.15;2.25;;;;;;;;;;4956176;29;20214;-72
2022/07/29 08:28:49;;;;;;;4.78;2.00;;;;;;;;;;4955778;28;20230;-72
2022/07/29 08:31:18;;;;;;;3.80;1.95;;;;;;;;;;4950577;29;20211;-73
2022/07/29 08:33:47;;;;;;;5.95;2.10;;;;;;;;;;4954635;28;20254;-73
2022/07/29 08:36:16;;;;;;;3.85;1.90;;;;;;;;;;4953446;29;20206;-73
2022/07/29 08:38:45;;;;;;;6.47;1.95;;;;;;;;;;4943771;29;20289;-72
2022/07/29 08:41:14;;;;;;;6.07;2.40;;;;;;;;;;4955105;28;20660;-72
2022/07/29 08:43:42;;;;;;;4.85;2.20;;;;;;;;;;4955130;28;20213;-73
2022/07/29 08:46:11;;;;;;;5.35;1.90;;;;;;;;;;4951452;28;20202;-73
2022/07/29 08:48:40;;;;;;;7.80;2.40;;;;;;;;;;4951935;29;20707;-73
2022/07/29 08:51:09;;;;;;;6.25;2.00;;;;;;;;;;4955493;28;20266;-73
2022/07/29 08:53:40;;;;;;;6.97;2.33;;;;;;;;;;4944329;29;20660;-73
2022/07/29 08:56:12;;;;;;;4.97;1.90;;;;;;;;;;4946238;28;20204;-73
2022/07/29 08:58:42;;;;;;;4.25;2.35;;;;;;;;;;4948324;29;20350;-73
2022/07/29 09:01:22;;;;;;;3.78;2.13;;;;;;;;;;4939120;29;20239;-74
2022/07/29 09:04:06;;;;;;;4.75;2.40;;;;;;;;;;4952589;28;20595;-73
2022/07/29 09:06:37;;;;;;;5.28;1.92;;;;;;;;;;4942412;29;20278;-73
2022/07/29 09:09:09;;;;;;;3.55;2.13;;;;;;;;;;4945963;29;20224;-73
2022/07/29 09:11:38;;;;;;;4.53;2.30;;;;;;;;;;4947614;29;20218;-73
2022/07/29 09:14:07;;;;;;;5.00;2.47;;;;;;;;;;4941528;29;20278;-73
2022/07/29 09:16:49;;;;;;;4.70;2.30;;;;;;;;;;4943779;29;20687;-73
2022/07/29 09:19:22;;;;;;;7.13;2.20;;;;;;;;;;4954822;28;20202;-73
2022/07/29 09:21:59;;;;;;;5.90;2.10;;;;;;;;;;4946340;28;20204;-73
2022/07/29 09:24:46;;;;;;;4.78;2.20;;;;;;;;;;4953908;29;20603;-74
2022/07/29 09:27:21;;;;;;;3.38;2.40;;;;;;;;;;4952240;28;20222;-74
2022/07/29 09:29:58;;;;;;;7.53;2.20;;;;;;;;;;4946925;29;20219;-73
2022/07/29 09:32:27;;;;;;;3.58;2.20;;;;;;;;;;4939327;29;20274;-73
2022/07/29 09:35:11;;;;;;;6.90;2.33;;;;;;;;;;4953307;29;20671;-74
2022/07/29 09:37:40;;;;;;;3.53;2.10;;;;;;;;;;4948161;29;20222;-73
2022/07/29 09:40:15;;;;;;;5.25;1.95;;;;;;;;;;4947306;28;20203;-73
2022/07/29 09:42:44;;;;;;;3.90;2.25;;;;;;;;;;4947518;29;20281;-73
2022/07/29 09:45:13;;;;;;;7.35;2.67;;;;;;;;;;4955919;29;20214;-74
2022/07/29 09:47:44;;;;;;;4.88;2.53;;;;;;;;;;4956712;28;20703;-73
2022/07/29 09:50:13;;;;;;;5.63;2.10;;;;;;;;;;4952585;29;20866;-74
2022/07/29 09:52:49;;;;;;;4.63;2.38;;;;;;;;;;4955126;28;20234;-75
2022/07/29 09:55:19;;;;;;;6.85;1.98;;;;;;;;;;4955157;29;20578;-74
2022/07/29 09:57:48;;;;;;;5.30;2.15;;;;;;;;;;4955795;28;20226;-76
2022/07/29 10:00:18;;;;;;;3.72;2.03;;;;;;;;;;4954632;28;20206;-74
2022/07/29 10:02:48;;;;;;;6.80;2.30;;;;;;;;;;4948830;28;20290;-74
2022/07/29 10:05:21;;;;;;;3.75;2.60;;;;;;;;;;4950556;29;20245;-75
2022/07/29 10:07:50;;;;;;;3.67;2.00;;;;;;;;;;4954935;28;20268;-74
2022/07/29 10:10:24;;;;;;;6.20;2.33;;;;;;;;;;4954726;29;20226;-74
2022/07/29 10:12:55;;;;;;;4.00;2.28;;;;;;;;;;4952591;29;20215;-75
2022/07/29 10:15:25;;;;;;;8.02;2.38;;;;;;;;;;4953801;28;20257;-75
2022/07/29 10:17:54;;;;;;;4.13;2.13;;;;;;;;;;4949927;29;20707;-74
2022/07/29 10:20:23;;;;;;;5.07;2.00;;;;;;;;;;4950350;28;20203;-73
2022/07/29 10:22:52;;;;;;;5.00;2.40;;;;;;;;;;4947256;28;20210;-74
2022/07/29 10:25:22;;;;;;;6.00;2.35;;;;;;;;;;4949483;29;20206;-74
2022/07/29 10:27:52;;;;;;;4.68;2.15;;;;;;;;;;4944400;29;20235;-73
2022/07/29 10:30:22;;;;;;;4.20;2.15;;;;;;;;;;4953297;29;20230;-73
2022/07/29 10:33:00;;;;;;;4.97;2.00;;;;;;;;;;4941802;28;20218;-73
2022/07/29 10:35:44;;;;;;;3.28;2.20;;;;;;;;;;4954232;28;20221;-73
2022/07/29 10:38:23;;;;;;;6.03;2.40;;;;;;;;;;4946285;29;20222;-74
2022/07/29 10:44:05;;;;;;;7.15;2.13;;;;;;;;;;4953979;28;20207;-74
2022/07/29 10:46:36;;;;;;;4.97;2.33;;;;;;;;;;4952430;29;20213;-73
2022/07/29 10:49:07;;;;;;;4.85;2.10;;;;;;;;;;4951547;28;20731;-73
2022/07/29 10:51:55;;;;;;;4.10;2.08;;;;;;;;;;4949825;29;20222;-73
2022/07/29 10:54:41;;;;;;;5.85;2.25;;;;;;;;;;4951126;29;20214;-73
2022/07/29 10:57:15;;;;;;;4.70;2.22;;;;;;;;;;4954843;28;20240;-73
2022/07/29 10:59:46;;;;;;;3.42;2.15;;;;;;;;;;4946279;29;20210;-73
2022/07/29 11:02:32;;;;;;;5.32;2.25;;;;;;;;;;4951008;29;20207;-73
2022/07/29 11:05:12;;;;;;;4.50;2.22;;;;;;;;;;4953168;29;20207;-74
2022/07/29 11:07:41;;;;;;;3.47;2.20;;;;;;;;;;4948846;28;20234;-73
2022/07/29 11:10:24;;;;;;;4.43;2.20;;;;;;;;;;4944096;29;20585;-75
2022/07/29 11:12:58;;;;;;;7.80;2.15;;;;;;;;;;4945070;29;20206;-73
2022/07/29 11:15:30;;;;;;;6.85;2.70;;;;;;;;;;4945458;29;20230;-74
2022/07/29 11:18:09;;;;;;;5.72;2.17;;;;;;;;;;4948338;28;20267;-74
2022/07/29 11:20:44;;;;;;;3.88;2.10;;;;;;;;;;4946241;29;20202;-74
2022/07/29 11:23:19;;;;;;;3.15;2.00;;;;;;;;;;4946313;28;20622;-73
2022/07/29 11:26:14;;;;;;;3.75;2.00;;;;;;;;;;4946991;29;20210;-74
2022/07/29 11:28:52;;;;;;;5.18;2.30;;;;;;;;;;4949365;28;20317;-73
2022/07/29 11:31:33;;;;;;;8.52;2.15;;;;;;;;;;4938285;29;20222;-74
2022/07/29 11:34:16;;;;;;;6.60;2.45;;;;;;;;;;4945302;29;20297;-73
2022/07/29 11:37:06;;;;;;;7.53;2.20;;;;;;;;;;4951311;28;20230;-74
2022/07/29 11:39:35;;;;;;;4.75;2.10;;;;;;;;;;4948751;29;20207;-75
2022/07/29 11:42:19;;;;;;;3.75;2.30;;;;;;;;;;4951725;29;20199;-74
2022/07/29 11:45:13;;;;;;;5.25;2.17;;;;;;;;;;4946698;28;20246;-74
2022/07/29 11:48:06;;;;;;;3.63;2.17;;;;;;;;;;4954222;29;20281;-73
2022/07/29 11:50:54;;;;;;;5.93;2.25;;;;;;;;;;4947891;29;20222;-73
2022/07/29 11:53:25;;;;;;;5.60;2.33;;;;;;;;;;4940074;29;20576;-74
2022/07/29 11:56:01;;;;;;;5.53;2.15;;;;;;;;;;4942761;29;20222;-74
2022/07/29 11:58:33;;;;;;;9.07;2.42;;;;;;;;;;4947947;29;20231;-73
2022/07/29 12:01:02;;;;;;;5.63;2.50;;;;;;;;;;4955111;28;20209;-74
2022/07/29 12:03:34;;;;;;;4.80;2.60;;;;;;;;;;4954216;29;20566;-74
2022/07/29 12:06:16;;;;;;;6.28;2.42;;;;;;;;;;4955605;28;20209;-74
2022/07/29 12:08:48;;;;;;;6.30;2.40;;;;;;;;;;4945603;29;20676;-74
2022/07/29 12:11:17;;;;;;;4.18;2.30;;;;;;;;;;4939384;29;20306;-74
2022/07/29 12:13:49;;;;;;;5.97;2.42;;;;;;;;;;4950194;28;20206;-74
2022/07/29 12:16:18;;;;;;;6.00;2.35;;;;;;;;;;4950301;29;20270;-74
2022/07/29 12:19:02;;;;;;;5.15;2.35;;;;;;;;;;4949358;29;20560;-74
2022/07/29 12:21:31;;;;;;;3.92;2.42;;;;;;;;;;4952360;28;20651;-75
2022/07/29 12:24:00;;;;;;;6.30;2.40;;;;;;;;;;4949970;28;20746;-74
2022/07/29 12:26:36;;;;;;;5.80;2.13;;;;;;;;;;4948419;29;20242;-74
2022/07/29 12:29:05;;;;;;;10.93;2.70;;;;;;;;;;4945323;29;20210;-75
2022/07/29 12:31:39;;;;;;;7.03;2.60;;;;;;;;;;4952743;29;20687;-74
2022/07/29 12:34:14;;;;;;;8.48;2.20;;;;;;;;;;4949916;29;20249;-74
2022/07/29 12:36:43;;;;;;;7.70;2.38;;;;;;;;;;4951945;28;20206;-74
2022/07/29 12:39:12;;;;;;;10.98;2.42;;;;;;;;;;4949389;28;20214;-75
2022/07/29 12:41:40;;;;;;;5.47;2.42;;;;;;;;;;4938656;28;20286;-74
2022/07/29 12:44:10;;;;;;;4.40;2.33;;;;;;;;;;4945405;29;20204;-74
2022/07/29 12:46:39;;;;;;;8.02;2.45;;;;;;;;;;4941577;29;20618;-74
2022/07/29 12:49:07;;;;;;;5.88;2.50;;;;;;;;;;4953735;28;20293;-74
2022/07/29 12:51:39;;;;;;;7.25;2.30;;;;;;;;;;4955554;28;20230;-74
2022/07/29 12:54:10;;;;;;;10.23;2.67;;;;;;;;;;4947296;28;20563;-74
2022/07/29 12:56:38;;;;;;;6.43;2.53;;;;;;;;;;4944551;28;20303;-74
2022/07/29 12:59:16;;;;;;;5.47;2.40;;;;;;;;;;4605700;28;10000368;-75
2022/07/29 13:01:46;;;;;;;6.85;2.63;;;;;;;;;;4949194;29;20293;-74
2022/07/29 13:04:26;;;;;;;3.53;2.25;;;;;;;;;;4947736;28;20222;-74
2022/07/29 13:07:01;;;;;;;5.63;2.63;;;;;;;;;;4949331;28;20234;-74
2022/07/29 13:09:39;;;;;;;6.15;2.30;;;;;;;;;;4950110;28;20211;-74
2022/07/29 13:12:09;;;;;;;5.97;2.70;;;;;;;;;;4943321;29;20321;-75
2022/07/29 13:14:39;;;;;;;4.82;2.60;;;;;;;;;;4949807;29;20682;-76
2022/07/29 13:17:09;;;;;;;3.55;2.72;;;;;;;;;;4953642;29;20246;-75
2022/07/29 13:19:40;;;;;;;5.97;2.58;;;;;;;;;;4953178;28;20214;-74
2022/07/29 13:22:25;;;;;;;9.38;3.00;;;;;;;;;;4954946;29;20190;-75
2022/07/29 13:24:54;;;;;;;5.57;2.63;;;;;;;;;;4944497;28;20214;-75
2022/07/29 13:27:23;;;;;;;5.80;2.78;;;;;;;;;;4935381;29;20227;-74
2022/07/29 13:29:53;;;;;;;5.07;2.50;;;;;;;;;;4936082;29;20215;-75
2022/07/29 13:32:22;;;;;;;5.18;2.45;;;;;;;;;;4936082;29;20632;-75
2022/07/29 13:34:56;;;;;;;4.70;2.30;;;;;;;;;;4935846;29;20249;-75
2022/07/29 13:37:29;;;;;;;4.45;2.55;;;;;;;;;;4935383;29;20227;-74
2022/07/29 13:39:58;;;;;;;3.08;2.03;;;;;;;;;;4936010;29;20191;-75
2022/07/29 13:42:30;;;;;;;9.40;2.70;;;;;;;;;;4935866;29;20207;-75
2022/07/29 13:44:59;;;;;;;5.57;2.30;;;;;;;;;;4935935;29;20192;-74
2022/07/29 13:47:28;;;;;;;6.43;2.75;;;;;;;;;;4935614;29;20230;-75
2022/07/29 13:50:01;;;;;;;5.90;2.65;;;;;;;;;;4935373;29;20201;-74
2022/07/29 13:52:31;;;;;;;8.68;2.50;;;;;;;;;;4935067;29;20224;-74
2022/07/29 13:54:59;;;;;;;6.32;2.50;;;;;;;;;;4935607;29;20209;-75
2022/07/29 13:57:28;;;;;;;4.40;2.42;;;;;;;;;;4935366;29;20230;-74
2022/07/29 13:59:57;;;;;;;6.07;2.60;;;;;;;;;;4935934;29;20256;-74
2022/07/29 14:02:25;;;;;;;4.20;2.50;;;;;;;;;;4935669;29;20211;-75
2022/07/29 14:04:54;;;;;;;4.18;2.47;;;;;;;;;;4935588;29;20254;-75
2022/07/29 14:07:23;;;;;;;6.05;2.50;;;;;;;;;;4935789;28;20230;-75
2022/07/29 14:09:53;;;;;;;5.75;3.00;;;;;;;;;;4953722;29;20570;-75
2022/07/29 14:12:22;;;;;;;6.90;2.22;;;;;;;;;;4954909;28;20603;-75
2022/07/29 14:14:50;;;;;;;5.50;2.40;;;;;;;;;;4952769;28;20194;-75
2022/07/29 14:17:19;;;;;;;5.88;2.50;;;;;;;;;;4953513;28;20222;-75
2022/07/29 14:19:48;;;;;;;5.70;2.60;;;;;;;;;;4955204;29;20206;-74
2022/07/29 14:22:18;;;;;;;6.38;2.60;;;;;;;;;;4955463;28;20203;-75
2022/07/29 14:24:54;;;;;;;3.92;2.35;;;;;;;;;;4956197;29;20190;-75
2022/07/29 14:27:22;;;;;;;4.57;2.58;;;;;;;;;;4955514;28;20238;-75
2022/07/29 14:30:06;;;;;;;3.42;2.50;;;;;;;;;;4948450;28;20199;-76
2022/07/29 14:32:34;;;;;;;6.55;2.40;;;;;;;;;;4937709;29;20246;-76
2022/07/29 14:35:03;;;;;;;4.25;2.60;;;;;;;;;;4954596;29;20215;-75
2022/07/29 14:37:32;;;;;;;6.88;2.83;;;;;;;;;;4955775;29;20230;-75
2022/07/29 14:40:10;;;;;;;10.05;2.50;;;;;;;;;;4955677;29;20257;-75
2022/07/29 14:42:39;;;;;;;3.55;2.20;;;;;;;;;;4955329;29;20193;-75
2022/07/29 14:45:08;;;;;;;5.47;2.50;;;;;;;;;;4955292;28;20643;-75
2022/07/29 14:47:37;;;;;;;3.60;2.58;;;;;;;;;;4955743;28;20573;-75
2022/07/29 14:50:06;;;;;;;5.47;2.47;;;;;;;;;;4936165;29;20206;-75
2022/07/29 14:52:35;;;;;;;4.57;2.60;;;;;;;;;;4936092;29;20227;-75
2022/07/29 14:55:19;;;;;;;5.32;2.70;;;;;;;;;;4936073;29;20211;-75
2022/07/29 14:57:50;;;;;;;7.75;2.70;;;;;;;;;;4936134;29;20246;-75
2022/07/29 15:00:26;;;;;;;3.80;2.42;;;;;;;;;;4935916;29;20199;-75
2022/07/29 15:02:54;;;;;;;7.38;2.67;;;;;;;;;;4939895;29;20214;-75
2022/07/29 15:05:30;;;;;;;3.88;2.65;;;;;;;;;;4939009;29;20205;-74
2022/07/29 15:07:59;;;;;;;6.32;2.83;;;;;;;;;;4954921;28;20226;-75
2022/07/29 15:10:28;;;;;;;17.25;3.17;;;;;;;;;;4955474;28;20565;-75
2022/07/29 15:12:58;;;;;;;61.22;6.10;;;;;;;;;;4954612;29;20230;-75
2022/07/29 15:15:27;;;;;;;4.68;2.70;;;;;;;;;;4955394;28;20214;-75
2022/07/29 15:17:55;;;;;;;3.72;2.38;;;;;;;;;;4954742;28;20230;-75